British Holly — MCZN2 — position and weather

sailwx.info

Track history (hours):
 
Tides and Currents Weather Stations Pressure Air Temp Water Temp Dewpoint Dewpoint Depression Visibility Wind Speed Wind Dir Waves Ship Positions

British Holly

Last reported at 2014-Sep-13 21:00 UTC. Time now 2014-Sep-16 05:02 UTC.
Position N 31°18' E 132°42'.

Type: Tanker. MMSI: 235814000.

Wind from 060 at 13 knots

Barometer 1010.9 mb
Air temperature 25.2 ° C
Visibility: greater than 10.8 NM
Dewpoint 17.8 ° C
Water temperature 29.0 ° C

Date/timePositionNaut miles runAvg speedWind from/ knotsBaromVisibWave heightAir tempDewpointWater temp
2014-Sep-13 21:00N 31°18' E 132°42'18812.1 060 / 131010.910.8 25.217.829.0
2014-Sep-13 05:25N 33°49' E 134°56'1213.8
2014-Sep-13 04:31N 34°01' E 134°57'1313.0
2014-Sep-13 03:33N 34°14' E 134°58'1212.0
2014-Sep-13 02:33N 34°25' E 135°05'1414.0
2014-Sep-13 01:33N 34°33' E 135°18'6 6.0
2014-Sep-13 00:32N 34°33' E 135°26'0 0.0
2014-Sep-12 23:32N 34°33' E 135°26'0 0.0
2014-Sep-12 22:32N 34°33' E 135°26'0 0.0
2014-Sep-12 21:32N 34°33' E 135°26'0 0.0
2014-Sep-12 20:28N 34°33' E 135°26'0 0.0
2014-Sep-12 19:32N 34°33' E 135°26'0 0.0
2014-Sep-12 18:33N 34°33' E 135°26'0 0.0
2014-Sep-12 17:33N 34°33' E 135°26'0 0.0
2014-Sep-12 16:33N 34°33' E 135°26'0 0.0
2014-Sep-12 15:33N 34°33' E 135°26'0 0.0
2014-Sep-12 14:33N 34°33' E 135°26'0 0.0
2014-Sep-12 13:30N 34°33' E 135°26'0 0.0
2014-Sep-12 12:18N 34°33' E 135°26'0 0.0
2014-Sep-12 11:30N 34°33' E 135°26'0 0.0
2014-Sep-12 10:32N 34°33' E 135°26'0 0.0
2014-Sep-12 09:20N 34°33' E 135°26'0 0.0
2014-Sep-12 08:32N 34°33' E 135°26'0 0.0
2014-Sep-12 07:20N 34°33' E 135°26'0 0.0
2014-Sep-12 06:32N 34°33' E 135°26'0 0.0
2014-Sep-12 05:14N 34°33' E 135°26'0 0.0
2014-Sep-12 03:33N 34°33' E 135°26'5 4.7
2014-Sep-12 02:33N 34°34' E 135°20'0 0.3
2014-Sep-12 01:28N 34°34' E 135°20'0 0.0
2014-Sep-12 00:28N 34°34' E 135°20'0 0.1
2014-Sep-11 23:28N 34°34' E 135°20'0 0.0
2014-Sep-11 22:28N 34°34' E 135°20'0 0.0
2014-Sep-11 21:22N 34°34' E 135°20'0 0.0
2014-Sep-11 20:22N 34°34' E 135°20'0 0.0
2014-Sep-11 19:28N 34°34' E 135°20'0 0.0
2014-Sep-11 18:28N 34°34' E 135°20'0 0.0
2014-Sep-11 17:28N 34°34' E 135°20'0 0.1
2014-Sep-11 16:28N 34°34' E 135°20'0 0.0
2014-Sep-11 15:28N 34°34' E 135°20'0 0.0
2014-Sep-11 14:22N 34°34' E 135°20'0 0.1
2014-Sep-11 13:28N 34°34' E 135°20'0 0.0
2014-Sep-11 12:28N 34°34' E 135°20'0 0.0
2014-Sep-11 11:32N 34°34' E 135°20'0 0.0
2014-Sep-11 10:26N 34°34' E 135°20'0 0.1
2014-Sep-11 09:33N 34°34' E 135°20'0 0.0
2014-Sep-11 08:33N 34°34' E 135°20'0 0.0
2014-Sep-11 07:33N 34°34' E 135°20'0 0.1
2014-Sep-11 06:32N 34°34' E 135°20'0 0.0
2014-Sep-11 05:26N 34°34' E 135°20'0 0.0
2014-Sep-11 04:31N 34°34' E 135°20'0 0.0
2014-Sep-11 03:25N 34°34' E 135°20'0 0.0
2014-Sep-11 02:23N 34°34' E 135°20'0 0.1
2014-Sep-11 01:11N 34°34' E 135°20'0 0.1
2014-Sep-11 00:29N 34°34' E 135°20'0 0.0
2014-Sep-10 23:27N 34°34' E 135°20'0 0.1
2014-Sep-10 22:33N 34°34' E 135°20'0 0.1
2014-Sep-10 21:31N 34°34' E 135°20'0 0.1
2014-Sep-10 20:31N 34°34' E 135°20'0 0.1
2014-Sep-10 19:31N 34°34' E 135°20'0 0.1
2014-Sep-10 18:31N 34°34' E 135°20'0 0.0
2014-Sep-10 17:31N 34°34' E 135°20'0 0.2
2014-Sep-10 16:31N 34°34' E 135°20'0 0.0
2014-Sep-10 15:25N 34°34' E 135°20'0 0.0
2014-Sep-10 14:31N 34°34' E 135°20'0 0.2
2014-Sep-10 13:31N 34°34' E 135°20'0 0.1
2014-Sep-10 12:31N 34°34' E 135°20'0 0.1
2014-Sep-10 11:33N 34°34' E 135°20'0 0.0
2014-Sep-10 10:33N 34°34' E 135°20'0 0.0
2014-Sep-10 09:33N 34°34' E 135°20'0 0.0
2014-Sep-10 08:33N 34°34' E 135°20'0 0.2
2014-Sep-10 07:33N 34°34' E 135°20'10 9.5
2014-Sep-10 06:33N 34°28' E 135°11'1312.7
2014-Sep-10 05:32N 34°19' E 135°00'1010.2
2014-Sep-10 04:33N 34°09' E 134°60'221 9.1
2014-Sep-09 04:24N 34°54' E 139°22'1112.9
2014-Sep-09 03:33N 34°58' E 139°35'1313.4
2014-Sep-09 02:33N 35°08' E 139°45'1111.4
2014-Sep-09 01:33N 35°20' E 139°43'10 9.6
2014-Sep-09 00:32N 35°29' E 139°47'0 0.0
2014-Sep-08 23:32N 35°29' E 139°47'0 0.0
2014-Sep-08 22:32N 35°29' E 139°47'0 0.0
2014-Sep-08 21:32N 35°29' E 139°47'0 0.0
2014-Sep-08 20:32N 35°29' E 139°47'0 0.0
2014-Sep-08 19:32N 35°29' E 139°47'0 0.0
2014-Sep-08 18:32N 35°29' E 139°47'0 0.0
2014-Sep-08 17:33N 35°29' E 139°47'0 0.0
2014-Sep-08 16:32N 35°29' E 139°47'0 0.0
2014-Sep-08 15:31N 35°29' E 139°47'0 0.0
2014-Sep-08 14:32N 35°29' E 139°47'0 0.0
2014-Sep-08 13:30N 35°29' E 139°47'0 0.0
2014-Sep-08 12:33N 35°29' E 139°47'0 0.0
2014-Sep-08 11:31N 35°29' E 139°47'0 0.0
2014-Sep-08 10:32N 35°29' E 139°47'0 0.0
2014-Sep-08 09:32N 35°29' E 139°47'0 0.0
2014-Sep-08 08:31N 35°29' E 139°47'0 0.0
2014-Sep-08 07:31N 35°29' E 139°47'0 0.0
2014-Sep-08 06:31N 35°29' E 139°47'0 0.0
2014-Sep-08 05:31N 35°29' E 139°47'0 0.0
2014-Sep-08 04:31N 35°29' E 139°47'0 0.0
2014-Sep-08 03:31N 35°29' E 139°47'0 0.0
2014-Sep-08 02:31N 35°29' E 139°47'0 0.0
2014-Sep-08 01:33N 35°29' E 139°47'2 1.6
2014-Sep-08 00:33N 35°27' E 139°47'0 0.1
2014-Sep-07 23:31N 35°27' E 139°47'0 0.1
2014-Sep-07 22:34N 35°27' E 139°47'0 0.0
2014-Sep-07 21:31N 35°27' E 139°47'0 0.0
2014-Sep-07 20:31N 35°27' E 139°47'0 0.1
2014-Sep-07 19:31N 35°27' E 139°47'0 0.2
2014-Sep-07 18:31N 35°27' E 139°47'0 0.1
2014-Sep-07 17:31N 35°27' E 139°47'0 0.0
2014-Sep-07 16:31N 35°27' E 139°47'0 0.1
2014-Sep-07 15:25N 35°27' E 139°47'0 0.1
2014-Sep-07 14:31N 35°27' E 139°47'0 0.1
2014-Sep-07 13:31N 35°27' E 139°47'0 0.0
2014-Sep-07 12:33N 35°27' E 139°47'0 0.0
2014-Sep-07 11:33N 35°27' E 139°47'0 0.0
2014-Sep-07 10:29N 35°27' E 139°47'0 0.0
2014-Sep-07 09:32N 35°27' E 139°47'0 0.0
2014-Sep-07 08:32N 35°27' E 139°47'0 0.0
2014-Sep-07 07:32N 35°27' E 139°47'0 0.1
2014-Sep-07 06:32N 35°27' E 139°47'0 0.1
2014-Sep-07 05:32N 35°27' E 139°47'0 0.1
2014-Sep-07 04:32N 35°27' E 139°47'0 0.1
2014-Sep-07 03:32N 35°27' E 139°47'0 0.0
2014-Sep-07 02:32N 35°27' E 139°47'0 0.0
2014-Sep-07 01:26N 35°27' E 139°47'0 0.1
2014-Sep-07 00:32N 35°27' E 139°47'0 0.4
2014-Sep-06 23:34N 35°27' E 139°46'7 6.6
2014-Sep-06 22:34N 35°20' E 139°45'10 9.9
2014-Sep-06 21:33N 35°11' E 139°47'6 5.9
2014-Sep-06 20:33N 35°05' E 139°44'8 7.7
2014-Sep-06 19:33N 34°59' E 139°38'1313.2
2014-Sep-06 18:33N 34°54' E 139°24'13916.2
2014-Sep-06 10:00N 33°00' E 137°48'25410.6 210 / 151010.610.8 27.325.528.0
2014-Sep-05 10:00N 30°36' E 133°42'28812.5 110 / 111011.410.8 28.526.428.0
2014-Sep-04 11:00N 27°24' E 129°36'   060 / 81009.510.8 30.025.828.0
Track history (hours):
 
Tides and Currents Weather Stations Pressure Air Temp Water Temp Dewpoint Dewpoint Depression Visibility Wind Speed Wind Dir Waves Ship Positions

British Holly

Last reported at 2014-Sep-13 21:00 UTC. Time now 2014-Sep-16 05:02 UTC.
Position N 31°18' E 132°42'.

Type: Tanker. MMSI: 235814000.

Wind from 060 at 13 knots

Barometer 1010.9 mb
Air temperature 25.2 ° C
Visibility: greater than 10.8 NM
Dewpoint 17.8 ° C
Water temperature 29.0 ° C

Date/timePositionNaut miles runAvg speedWind from/ knotsBaromVisibWave heightAir tempDewpointWater temp
2014-Sep-13 21:00N 31°18' E 132°42'18812.1 060 / 131010.910.8 25.217.829.0
2014-Sep-13 05:25N 33°49' E 134°56'1213.8
2014-Sep-13 04:31N 34°01' E 134°57'1313.0
2014-Sep-13 03:33N 34°14' E 134°58'1212.0
2014-Sep-13 02:33N 34°25' E 135°05'1414.0
2014-Sep-13 01:33N 34°33' E 135°18'6 6.0
2014-Sep-13 00:32N 34°33' E 135°26'0 0.0
2014-Sep-12 23:32N 34°33' E 135°26'0 0.0
2014-Sep-12 22:32N 34°33' E 135°26'0 0.0
2014-Sep-12 21:32N 34°33' E 135°26'0 0.0
2014-Sep-12 20:28N 34°33' E 135°26'0 0.0
2014-Sep-12 19:32N 34°33' E 135°26'0 0.0
2014-Sep-12 18:33N 34°33' E 135°26'0 0.0
2014-Sep-12 17:33N 34°33' E 135°26'0 0.0
2014-Sep-12 16:33N 34°33' E 135°26'0 0.0
2014-Sep-12 15:33N 34°33' E 135°26'0 0.0
2014-Sep-12 14:33N 34°33' E 135°26'0 0.0
2014-Sep-12 13:30N 34°33' E 135°26'0 0.0
2014-Sep-12 12:18N 34°33' E 135°26'0 0.0
2014-Sep-12 11:30N 34°33' E 135°26'0 0.0
2014-Sep-12 10:32N 34°33' E 135°26'0 0.0
2014-Sep-12 09:20N 34°33' E 135°26'0 0.0
2014-Sep-12 08:32N 34°33' E 135°26'0 0.0
2014-Sep-12 07:20N 34°33' E 135°26'0 0.0
2014-Sep-12 06:32N 34°33' E 135°26'0 0.0
2014-Sep-12 05:14N 34°33' E 135°26'0 0.0
2014-Sep-12 03:33N 34°33' E 135°26'5 4.7
2014-Sep-12 02:33N 34°34' E 135°20'0 0.3
2014-Sep-12 01:28N 34°34' E 135°20'0 0.0
2014-Sep-12 00:28N 34°34' E 135°20'0 0.1
2014-Sep-11 23:28N 34°34' E 135°20'0 0.0
2014-Sep-11 22:28N 34°34' E 135°20'0 0.0
2014-Sep-11 21:22N 34°34' E 135°20'0 0.0
2014-Sep-11 20:22N 34°34' E 135°20'0 0.0
2014-Sep-11 19:28N 34°34' E 135°20'0 0.0
2014-Sep-11 18:28N 34°34' E 135°20'0 0.0
2014-Sep-11 17:28N 34°34' E 135°20'0 0.1
2014-Sep-11 16:28N 34°34' E 135°20'0 0.0
2014-Sep-11 15:28N 34°34' E 135°20'0 0.0
2014-Sep-11 14:22N 34°34' E 135°20'0 0.1
2014-Sep-11 13:28N 34°34' E 135°20'0 0.0
2014-Sep-11 12:28N 34°34' E 135°20'0 0.0
2014-Sep-11 11:32N 34°34' E 135°20'0 0.0
2014-Sep-11 10:26N 34°34' E 135°20'0 0.1
2014-Sep-11 09:33N 34°34' E 135°20'0 0.0
2014-Sep-11 08:33N 34°34' E 135°20'0 0.0
2014-Sep-11 07:33N 34°34' E 135°20'0 0.1
2014-Sep-11 06:32N 34°34' E 135°20'0 0.0
2014-Sep-11 05:26N 34°34' E 135°20'0 0.0
2014-Sep-11 04:31N 34°34' E 135°20'0 0.0
2014-Sep-11 03:25N 34°34' E 135°20'0 0.0
2014-Sep-11 02:23N 34°34' E 135°20'0 0.1
2014-Sep-11 01:11N 34°34' E 135°20'0 0.1
2014-Sep-11 00:29N 34°34' E 135°20'0 0.0
2014-Sep-10 23:27N 34°34' E 135°20'0 0.1
2014-Sep-10 22:33N 34°34' E 135°20'0 0.1
2014-Sep-10 21:31N 34°34' E 135°20'0 0.1
2014-Sep-10 20:31N 34°34' E 135°20'0 0.1
2014-Sep-10 19:31N 34°34' E 135°20'0 0.1
2014-Sep-10 18:31N 34°34' E 135°20'0 0.0
2014-Sep-10 17:31N 34°34' E 135°20'0 0.2
2014-Sep-10 16:31N 34°34' E 135°20'0 0.0
2014-Sep-10 15:25N 34°34' E 135°20'0 0.0
2014-Sep-10 14:31N 34°34' E 135°20'0 0.2
2014-Sep-10 13:31N 34°34' E 135°20'0 0.1
2014-Sep-10 12:31N 34°34' E 135°20'0 0.1
2014-Sep-10 11:33N 34°34' E 135°20'0 0.0
2014-Sep-10 10:33N 34°34' E 135°20'0 0.0
2014-Sep-10 09:33N 34°34' E 135°20'0 0.0
2014-Sep-10 08:33N 34°34' E 135°20'0 0.2
2014-Sep-10 07:33N 34°34' E 135°20'10 9.5
2014-Sep-10 06:33N 34°28' E 135°11'1312.7
2014-Sep-10 05:32N 34°19' E 135°00'1010.2
2014-Sep-10 04:33N 34°09' E 134°60'221 9.1
2014-Sep-09 04:24N 34°54' E 139°22'1112.9
2014-Sep-09 03:33N 34°58' E 139°35'1313.4
2014-Sep-09 02:33N 35°08' E 139°45'1111.4
2014-Sep-09 01:33N 35°20' E 139°43'10 9.6
2014-Sep-09 00:32N 35°29' E 139°47'0 0.0
2014-Sep-08 23:32N 35°29' E 139°47'0 0.0
2014-Sep-08 22:32N 35°29' E 139°47'0 0.0
2014-Sep-08 21:32N 35°29' E 139°47'0 0.0
2014-Sep-08 20:32N 35°29' E 139°47'0 0.0
2014-Sep-08 19:32N 35°29' E 139°47'0 0.0
2014-Sep-08 18:32N 35°29' E 139°47'0 0.0
2014-Sep-08 17:33N 35°29' E 139°47'0 0.0
2014-Sep-08 16:32N 35°29' E 139°47'0 0.0
2014-Sep-08 15:31N 35°29' E 139°47'0 0.0
2014-Sep-08 14:32N 35°29' E 139°47'0 0.0
2014-Sep-08 13:30N 35°29' E 139°47'0 0.0
2014-Sep-08 12:33N 35°29' E 139°47'0 0.0
2014-Sep-08 11:31N 35°29' E 139°47'0 0.0
2014-Sep-08 10:32N 35°29' E 139°47'0 0.0
2014-Sep-08 09:32N 35°29' E 139°47'0 0.0
2014-Sep-08 08:31N 35°29' E 139°47'0 0.0
2014-Sep-08 07:31N 35°29' E 139°47'0 0.0
2014-Sep-08 06:31N 35°29' E 139°47'0 0.0
2014-Sep-08 05:31N 35°29' E 139°47'0 0.0
2014-Sep-08 04:31N 35°29' E 139°47'0 0.0
2014-Sep-08 03:31N 35°29' E 139°47'0 0.0
2014-Sep-08 02:31N 35°29' E 139°47'0 0.0
2014-Sep-08 01:33N 35°29' E 139°47'2 1.6
2014-Sep-08 00:33N 35°27' E 139°47'0 0.1
2014-Sep-07 23:31N 35°27' E 139°47'0 0.1
2014-Sep-07 22:34N 35°27' E 139°47'0 0.0
2014-Sep-07 21:31N 35°27' E 139°47'0 0.0
2014-Sep-07 20:31N 35°27' E 139°47'0 0.1
2014-Sep-07 19:31N 35°27' E 139°47'0 0.2
2014-Sep-07 18:31N 35°27' E 139°47'0 0.1
2014-Sep-07 17:31N 35°27' E 139°47'0 0.0
2014-Sep-07 16:31N 35°27' E 139°47'0 0.1
2014-Sep-07 15:25N 35°27' E 139°47'0 0.1
2014-Sep-07 14:31N 35°27' E 139°47'0 0.1
2014-Sep-07 13:31N 35°27' E 139°47'0 0.0
2014-Sep-07 12:33N 35°27' E 139°47'0 0.0
2014-Sep-07 11:33N 35°27' E 139°47'0 0.0
2014-Sep-07 10:29N 35°27' E 139°47'0 0.0
2014-Sep-07 09:32N 35°27' E 139°47'0 0.0
2014-Sep-07 08:32N 35°27' E 139°47'0 0.0
2014-Sep-07 07:32N 35°27' E 139°47'0 0.1
2014-Sep-07 06:32N 35°27' E 139°47'0 0.1
2014-Sep-07 05:32N 35°27' E 139°47'0 0.1
2014-Sep-07 04:32N 35°27' E 139°47'0 0.1
2014-Sep-07 03:32N 35°27' E 139°47'0 0.0
2014-Sep-07 02:32N 35°27' E 139°47'0 0.0
2014-Sep-07 01:26N 35°27' E 139°47'0 0.1
2014-Sep-07 00:32N 35°27' E 139°47'0 0.4
2014-Sep-06 23:34N 35°27' E 139°46'7 6.6
2014-Sep-06 22:34N 35°20' E 139°45'10 9.9
2014-Sep-06 21:33N 35°11' E 139°47'6 5.9
2014-Sep-06 20:33N 35°05' E 139°44'8 7.7
2014-Sep-06 19:33N 34°59' E 139°38'1313.2
2014-Sep-06 18:33N 34°54' E 139°24'13916.2
2014-Sep-06 10:00N 33°00' E 137°48'25410.6 210 / 151010.610.8 27.325.528.0
2014-Sep-05 10:00N 30°36' E 133°42'28812.5 110 / 111011.410.8 28.526.428.0
2014-Sep-04 11:00N 27°24' E 129°36'   060 / 81009.510.8 30.025.828.0

Dump ship's entire track history